sensor_id;sensor_type;location;lat;lon;timestamp;P1;durP1;ratioP1;P2;durP2;ratioP2
15958;SDS011;8078;47.822;9.402;2023-02-01T00:00:22;18.80;;;10.97;;
15958;SDS011;8078;47.822;9.402;2023-02-01T00:02:48;17.20;;;12.50;;
15958;SDS011;8078;47.822;9.402;2023-02-01T00:05:13;17.83;;;12.00;;
15958;SDS011;8078;47.822;9.402;2023-02-01T00:07:39;19.33;;;11.30;;
15958;SDS011;8078;47.822;9.402;2023-02-01T00:10:05;14.77;;;11.13;;
15958;SDS011;8078;47.822;9.402;2023-02-01T00:12:32;19.03;;;9.63;;
15958;SDS011;8078;47.822;9.402;2023-02-01T00:14:58;19.93;;;11.33;;
15958;SDS011;8078;47.822;9.402;2023-02-01T00:17:23;17.83;;;10.13;;
15958;SDS011;8078;47.822;9.402;2023-02-01T00:19:49;15.30;;;10.53;;
15958;SDS011;8078;47.822;9.402;2023-02-01T00:22:15;16.57;;;10.47;;
15958;SDS011;8078;47.822;9.402;2023-02-01T00:24:41;16.67;;;9.33;;
15958;SDS011;8078;47.822;9.402;2023-02-01T00:27:06;16.03;;;10.43;;
15958;SDS011;8078;47.822;9.402;2023-02-01T00:29:32;15.07;;;10.40;;
15958;SDS011;8078;47.822;9.402;2023-02-01T00:31:57;19.77;;;11.60;;
15958;SDS011;8078;47.822;9.402;2023-02-01T00:34:23;16.00;;;10.33;;
15958;SDS011;8078;47.822;9.402;2023-02-01T00:36:48;15.30;;;9.77;;
15958;SDS011;8078;47.822;9.402;2023-02-01T00:39:14;14.67;;;10.70;;
15958;SDS011;8078;47.822;9.402;2023-02-01T00:41:40;17.13;;;10.80;;
15958;SDS011;8078;47.822;9.402;2023-02-01T00:44:06;15.17;;;9.07;;
15958;SDS011;8078;47.822;9.402;2023-02-01T00:46:32;13.33;;;9.50;;
15958;SDS011;8078;47.822;9.402;2023-02-01T00:48:57;14.50;;;9.93;;
15958;SDS011;8078;47.822;9.402;2023-02-01T00:51:24;16.57;;;10.03;;
15958;SDS011;8078;47.822;9.402;2023-02-01T00:53:51;14.00;;;10.37;;
15958;SDS011;8078;47.822;9.402;2023-02-01T00:56:18;16.27;;;11.07;;
15958;SDS011;8078;47.822;9.402;2023-02-01T00:58:44;14.73;;;10.10;;
15958;SDS011;8078;47.822;9.402;2023-02-01T01:03:46;15.40;;;9.87;;
15958;SDS011;8078;47.822;9.402;2023-02-01T01:06:16;14.33;;;10.00;;
15958;SDS011;8078;47.822;9.402;2023-02-01T01:08:44;15.80;;;11.07;;
15958;SDS011;8078;47.822;9.402;2023-02-01T01:11:11;16.13;;;9.83;;
15958;SDS011;8078;47.822;9.402;2023-02-01T01:13:37;17.63;;;8.77;;
15958;SDS011;8078;47.822;9.402;2023-02-01T01:16:04;11.10;;;8.17;;
15958;SDS011;8078;47.822;9.402;2023-02-01T01:18:31;14.27;;;10.03;;
15958;SDS011;8078;47.822;9.402;2023-02-01T01:20:58;16.23;;;9.43;;
15958;SDS011;8078;47.822;9.402;2023-02-01T01:23:24;14.67;;;9.73;;
15958;SDS011;8078;47.822;9.402;2023-02-01T01:25:50;13.50;;;10.37;;
15958;SDS011;8078;47.822;9.402;2023-02-01T01:28:16;16.07;;;9.60;;
15958;SDS011;8078;47.822;9.402;2023-02-01T01:30:41;15.13;;;9.80;;
15958;SDS011;8078;47.822;9.402;2023-02-01T01:33:07;13.30;;;8.33;;
15958;SDS011;8078;47.822;9.402;2023-02-01T01:35:33;15.10;;;9.13;;
15958;SDS011;8078;47.822;9.402;2023-02-01T01:37:59;15.30;;;9.60;;
15958;SDS011;8078;47.822;9.402;2023-02-01T01:40:25;12.13;;;8.30;;
15958;SDS011;8078;47.822;9.402;2023-02-01T01:42:52;13.70;;;9.67;;
15958;SDS011;8078;47.822;9.402;2023-02-01T01:45:27;17.67;;;9.67;;
15958;SDS011;8078;47.822;9.402;2023-02-01T01:48:04;11.67;;;8.70;;
15958;SDS011;8078;47.822;9.402;2023-02-01T01:50:43;15.57;;;10.67;;
15958;SDS011;8078;47.822;9.402;2023-02-01T01:53:27;14.03;;;9.87;;
15958;SDS011;8078;47.822;9.402;2023-02-01T01:55:57;14.83;;;9.90;;
15958;SDS011;8078;47.822;9.402;2023-02-01T01:58:24;15.17;;;10.67;;
15958;SDS011;8078;47.822;9.402;2023-02-01T02:00:53;14.27;;;10.40;;
15958;SDS011;8078;47.822;9.402;2023-02-01T02:03:20;14.67;;;9.00;;
15958;SDS011;8078;47.822;9.402;2023-02-01T02:05:52;13.17;;;8.87;;
15958;SDS011;8078;47.822;9.402;2023-02-01T02:08:20;15.50;;;10.60;;
15958;SDS011;8078;47.822;9.402;2023-02-01T02:10:47;12.00;;;8.53;;
15958;SDS011;8078;47.822;9.402;2023-02-01T02:13:48;15.10;;;9.53;;
15958;SDS011;8078;47.822;9.402;2023-02-01T02:31:04;13.53;;;10.50;;
15958;SDS011;8078;47.822;9.402;2023-02-01T02:45:04;16.07;;;10.90;;
15958;SDS011;8078;47.822;9.402;2023-02-01T02:47:59;15.80;;;10.20;;
15958;SDS011;8078;47.822;9.402;2023-02-01T02:53:35;17.73;;;11.53;;
15958;SDS011;8078;47.822;9.402;2023-02-01T02:56:21;14.90;;;9.83;;
15958;SDS011;8078;47.822;9.402;2023-02-01T02:59:07;16.53;;;10.20;;
15958;SDS011;8078;47.822;9.402;2023-02-01T03:01:54;15.00;;;11.00;;
15958;SDS011;8078;47.822;9.402;2023-02-01T03:04:39;18.40;;;11.07;;
15958;SDS011;8078;47.822;9.402;2023-02-01T03:07:11;15.87;;;9.97;;
15958;SDS011;8078;47.822;9.402;2023-02-01T03:09:57;16.07;;;8.93;;
15958;SDS011;8078;47.822;9.402;2023-02-01T03:12:28;17.63;;;13.17;;
15958;SDS011;8078;47.822;9.402;2023-02-01T03:15:15;16.60;;;11.57;;
15958;SDS011;8078;47.822;9.402;2023-02-01T03:17:41;17.33;;;11.40;;
15958;SDS011;8078;47.822;9.402;2023-02-01T03:20:08;17.33;;;12.17;;
15958;SDS011;8078;47.822;9.402;2023-02-01T03:22:38;18.00;;;10.57;;
15958;SDS011;8078;47.822;9.402;2023-02-01T03:25:09;14.67;;;10.10;;
15958;SDS011;8078;47.822;9.402;2023-02-01T03:27:42;17.07;;;10.00;;
15958;SDS011;8078;47.822;9.402;2023-02-01T03:30:18;17.13;;;11.47;;
15958;SDS011;8078;47.822;9.402;2023-02-01T03:32:47;17.73;;;11.77;;
15958;SDS011;8078;47.822;9.402;2023-02-01T03:35:35;18.20;;;10.90;;
15958;SDS011;8078;47.822;9.402;2023-02-01T03:49:58;17.33;;;11.23;;
15958;SDS011;8078;47.822;9.402;2023-02-01T03:52:28;21.30;;;14.83;;
15958;SDS011;8078;47.822;9.402;2023-02-01T03:54:59;22.33;;;14.77;;
15958;SDS011;8078;47.822;9.402;2023-02-01T03:57:35;26.73;;;16.30;;
15958;SDS011;8078;47.822;9.402;2023-02-01T04:02:30;21.60;;;13.40;;
15958;SDS011;8078;47.822;9.402;2023-02-01T04:04:56;19.87;;;13.67;;
15958;SDS011;8078;47.822;9.402;2023-02-01T04:07:21;24.13;;;14.83;;
15958;SDS011;8078;47.822;9.402;2023-02-01T04:09:47;24.67;;;14.80;;
15958;SDS011;8078;47.822;9.402;2023-02-01T04:12:12;25.93;;;15.60;;
15958;SDS011;8078;47.822;9.402;2023-02-01T04:14:38;20.67;;;12.93;;
15958;SDS011;8078;47.822;9.402;2023-02-01T04:17:03;26.43;;;15.13;;
15958;SDS011;8078;47.822;9.402;2023-02-01T04:19:29;24.60;;;14.50;;
15958;SDS011;8078;47.822;9.402;2023-02-01T04:21:54;24.93;;;13.43;;
15958;SDS011;8078;47.822;9.402;2023-02-01T04:24:20;24.40;;;15.43;;
15958;SDS011;8078;47.822;9.402;2023-02-01T04:26:45;28.47;;;16.80;;
15958;SDS011;8078;47.822;9.402;2023-02-01T04:29:11;27.57;;;14.67;;
15958;SDS011;8078;47.822;9.402;2023-02-01T04:31:36;25.17;;;13.93;;
15958;SDS011;8078;47.822;9.402;2023-02-01T04:34:02;22.40;;;13.87;;
15958;SDS011;8078;47.822;9.402;2023-02-01T04:36:28;20.97;;;13.50;;
15958;SDS011;8078;47.822;9.402;2023-02-01T04:38:53;26.53;;;17.17;;
15958;SDS011;8078;47.822;9.402;2023-02-01T04:41:19;27.57;;;14.57;;
15958;SDS011;8078;47.822;9.402;2023-02-01T04:43:45;30.93;;;17.40;;
15958;SDS011;8078;47.822;9.402;2023-02-01T04:46:12;27.47;;;16.67;;
15958;SDS011;8078;47.822;9.402;2023-02-01T04:48:37;27.47;;;18.00;;
15958;SDS011;8078;47.822;9.402;2023-02-01T04:51:03;29.13;;;14.00;;
15958;SDS011;8078;47.822;9.402;2023-02-01T04:53:29;26.07;;;14.43;;
15958;SDS011;8078;47.822;9.402;2023-02-01T04:55:54;28.20;;;15.83;;
15958;SDS011;8078;47.822;9.402;2023-02-01T04:58:20;30.43;;;18.80;;
15958;SDS011;8078;47.822;9.402;2023-02-01T05:00:46;29.30;;;17.67;;
15958;SDS011;8078;47.822;9.402;2023-02-01T05:03:11;28.20;;;18.67;;
15958;SDS011;8078;47.822;9.402;2023-02-01T05:05:37;31.67;;;19.53;;
15958;SDS011;8078;47.822;9.402;2023-02-01T05:08:03;26.70;;;15.90;;
15958;SDS011;8078;47.822;9.402;2023-02-01T05:10:28;32.67;;;18.60;;
15958;SDS011;8078;47.822;9.402;2023-02-01T05:12:54;28.07;;;16.43;;
15958;SDS011;8078;47.822;9.402;2023-02-01T05:15:38;31.77;;;18.20;;
15958;SDS011;8078;47.822;9.402;2023-02-01T05:18:04;28.03;;;15.83;;
15958;SDS011;8078;47.822;9.402;2023-02-01T05:20:29;30.03;;;16.67;;
15958;SDS011;8078;47.822;9.402;2023-02-01T05:22:55;25.17;;;14.07;;
15958;SDS011;8078;47.822;9.402;2023-02-01T05:25:20;27.50;;;15.43;;
15958;SDS011;8078;47.822;9.402;2023-02-01T05:27:46;31.30;;;18.30;;
15958;SDS011;8078;47.822;9.402;2023-02-01T05:30:12;31.77;;;17.53;;
15958;SDS011;8078;47.822;9.402;2023-02-01T05:32:37;32.77;;;16.93;;
15958;SDS011;8078;47.822;9.402;2023-02-01T05:35:03;32.37;;;19.27;;
15958;SDS011;8078;47.822;9.402;2023-02-01T05:37:29;37.90;;;22.73;;
15958;SDS011;8078;47.822;9.402;2023-02-01T05:39:54;35.27;;;18.43;;
15958;SDS011;8078;47.822;9.402;2023-02-01T05:42:20;29.53;;;15.43;;
15958;SDS011;8078;47.822;9.402;2023-02-01T05:44:45;29.70;;;18.07;;
15958;SDS011;8078;47.822;9.402;2023-02-01T05:47:11;36.37;;;19.17;;
15958;SDS011;8078;47.822;9.402;2023-02-01T05:49:37;29.40;;;18.73;;
15958;SDS011;8078;47.822;9.402;2023-02-01T05:52:03;34.93;;;20.67;;
15958;SDS011;8078;47.822;9.402;2023-02-01T05:54:28;35.80;;;20.97;;
15958;SDS011;8078;47.822;9.402;2023-02-01T05:56:54;38.87;;;23.87;;
15958;SDS011;8078;47.822;9.402;2023-02-01T05:59:19;42.53;;;21.77;;
15958;SDS011;8078;47.822;9.402;2023-02-01T06:01:45;37.93;;;22.10;;
15958;SDS011;8078;47.822;9.402;2023-02-01T06:04:11;43.87;;;19.37;;
15958;SDS011;8078;47.822;9.402;2023-02-01T06:06:36;48.03;;;25.27;;
15958;SDS011;8078;47.822;9.402;2023-02-01T06:09:02;47.53;;;26.80;;
15958;SDS011;8078;47.822;9.402;2023-02-01T06:11:28;40.87;;;22.50;;
15958;SDS011;8078;47.822;9.402;2023-02-01T06:13:54;50.20;;;25.57;;
15958;SDS011;8078;47.822;9.402;2023-02-01T06:16:20;45.60;;;25.37;;
15958;SDS011;8078;47.822;9.402;2023-02-01T06:18:46;45.27;;;22.70;;
15958;SDS011;8078;47.822;9.402;2023-02-01T06:21:11;49.17;;;25.50;;
15958;SDS011;8078;47.822;9.402;2023-02-01T06:23:39;41.40;;;22.50;;
15958;SDS011;8078;47.822;9.402;2023-02-01T06:26:05;46.20;;;23.60;;
15958;SDS011;8078;47.822;9.402;2023-02-01T06:28:33;38.47;;;20.27;;
15958;SDS011;8078;47.822;9.402;2023-02-01T06:31:02;45.83;;;24.37;;
15958;SDS011;8078;47.822;9.402;2023-02-01T06:33:32;45.83;;;23.57;;
15958;SDS011;8078;47.822;9.402;2023-02-01T06:35:59;43.13;;;20.87;;
15958;SDS011;8078;47.822;9.402;2023-02-01T06:38:26;41.03;;;22.97;;
15958;SDS011;8078;47.822;9.402;2023-02-01T06:40:52;42.03;;;23.90;;
15958;SDS011;8078;47.822;9.402;2023-02-01T06:43:19;49.07;;;22.50;;
15958;SDS011;8078;47.822;9.402;2023-02-01T06:45:45;42.80;;;21.57;;
15958;SDS011;8078;47.822;9.402;2023-02-01T06:48:11;37.87;;;19.43;;
15958;SDS011;8078;47.822;9.402;2023-02-01T06:50:36;43.93;;;22.77;;
15958;SDS011;8078;47.822;9.402;2023-02-01T06:53:02;50.77;;;25.20;;
15958;SDS011;8078;47.822;9.402;2023-02-01T06:55:28;52.50;;;26.03;;
15958;SDS011;8078;47.822;9.402;2023-02-01T06:57:53;45.53;;;23.87;;
15958;SDS011;8078;47.822;9.402;2023-02-01T07:00:20;44.37;;;22.60;;
15958;SDS011;8078;47.822;9.402;2023-02-01T07:02:46;49.87;;;27.50;;
15958;SDS011;8078;47.822;9.402;2023-02-01T07:05:12;47.87;;;22.80;;
15958;SDS011;8078;47.822;9.402;2023-02-01T07:07:37;49.20;;;21.90;;
15958;SDS011;8078;47.822;9.402;2023-02-01T07:10:03;47.30;;;25.30;;
15958;SDS011;8078;47.822;9.402;2023-02-01T07:12:29;49.90;;;25.30;;
15958;SDS011;8078;47.822;9.402;2023-02-01T07:14:54;47.93;;;27.73;;
15958;SDS011;8078;47.822;9.402;2023-02-01T07:17:21;45.83;;;24.53;;
15958;SDS011;8078;47.822;9.402;2023-02-01T07:19:47;46.63;;;24.20;;
15958;SDS011;8078;47.822;9.402;2023-02-01T07:22:12;45.47;;;23.20;;
15958;SDS011;8078;47.822;9.402;2023-02-01T07:24:38;49.67;;;26.00;;
15958;SDS011;8078;47.822;9.402;2023-02-01T07:27:03;51.27;;;26.57;;
15958;SDS011;8078;47.822;9.402;2023-02-01T07:29:29;50.87;;;26.93;;
15958;SDS011;8078;47.822;9.402;2023-02-01T07:31:55;47.90;;;27.30;;
15958;SDS011;8078;47.822;9.402;2023-02-01T07:34:20;53.90;;;26.17;;
15958;SDS011;8078;47.822;9.402;2023-02-01T07:36:46;47.10;;;24.10;;
15958;SDS011;8078;47.822;9.402;2023-02-01T07:39:11;46.20;;;24.40;;
15958;SDS011;8078;47.822;9.402;2023-02-01T07:41:37;48.93;;;26.70;;
15958;SDS011;8078;47.822;9.402;2023-02-01T07:44:02;48.87;;;24.80;;
15958;SDS011;8078;47.822;9.402;2023-02-01T07:46:28;47.63;;;26.13;;
15958;SDS011;8078;47.822;9.402;2023-02-01T07:48:53;46.80;;;24.07;;
15958;SDS011;8078;47.822;9.402;2023-02-01T07:51:20;52.00;;;22.73;;
15958;SDS011;8078;47.822;9.402;2023-02-01T07:53:45;45.50;;;26.83;;
15958;SDS011;8078;47.822;9.402;2023-02-01T07:56:12;46.37;;;25.80;;
15958;SDS011;8078;47.822;9.402;2023-02-01T07:58:42;42.20;;;21.67;;
15958;SDS011;8078;47.822;9.402;2023-02-01T08:01:17;42.00;;;26.20;;
15958;SDS011;8078;47.822;9.402;2023-02-01T08:03:46;43.00;;;25.43;;
15958;SDS011;8078;47.822;9.402;2023-02-01T08:06:13;40.17;;;20.73;;
15958;SDS011;8078;47.822;9.402;2023-02-01T08:08:38;46.50;;;21.97;;
15958;SDS011;8078;47.822;9.402;2023-02-01T08:11:04;47.47;;;27.03;;
15958;SDS011;8078;47.822;9.402;2023-02-01T08:13:33;35.93;;;22.23;;
15958;SDS011;8078;47.822;9.402;2023-02-01T08:15:59;42.13;;;23.63;;
15958;SDS011;8078;47.822;9.402;2023-02-01T08:18:26;38.20;;;23.97;;
15958;SDS011;8078;47.822;9.402;2023-02-01T08:20:52;38.53;;;25.17;;
15958;SDS011;8078;47.822;9.402;2023-02-01T08:23:17;41.50;;;19.33;;
15958;SDS011;8078;47.822;9.402;2023-02-01T08:25:43;33.50;;;18.53;;
15958;SDS011;8078;47.822;9.402;2023-02-01T08:28:09;36.00;;;18.20;;
15958;SDS011;8078;47.822;9.402;2023-02-01T08:30:38;35.67;;;20.90;;
15958;SDS011;8078;47.822;9.402;2023-02-01T08:33:05;43.47;;;25.03;;
15958;SDS011;8078;47.822;9.402;2023-02-01T08:35:31;34.93;;;22.83;;
15958;SDS011;8078;47.822;9.402;2023-02-01T08:37:59;38.90;;;22.07;;
15958;SDS011;8078;47.822;9.402;2023-02-01T08:40:24;37.90;;;22.70;;
15958;SDS011;8078;47.822;9.402;2023-02-01T08:42:50;41.87;;;24.10;;
15958;SDS011;8078;47.822;9.402;2023-02-01T08:45:16;37.57;;;22.33;;
15958;SDS011;8078;47.822;9.402;2023-02-01T08:47:43;37.43;;;20.07;;
15958;SDS011;8078;47.822;9.402;2023-02-01T08:50:09;43.67;;;22.77;;
15958;SDS011;8078;47.822;9.402;2023-02-01T08:52:35;41.47;;;24.00;;
15958;SDS011;8078;47.822;9.402;2023-02-01T08:55:01;38.77;;;21.03;;
15958;SDS011;8078;47.822;9.402;2023-02-01T08:57:26;38.47;;;20.00;;
15958;SDS011;8078;47.822;9.402;2023-02-01T08:59:52;45.33;;;25.60;;
15958;SDS011;8078;47.822;9.402;2023-02-01T09:02:18;39.07;;;21.97;;
15958;SDS011;8078;47.822;9.402;2023-02-01T09:04:43;43.77;;;24.60;;
15958;SDS011;8078;47.822;9.402;2023-02-01T09:07:09;43.77;;;21.37;;
15958;SDS011;8078;47.822;9.402;2023-02-01T09:09:35;52.53;;;26.40;;
15958;SDS011;8078;47.822;9.402;2023-02-01T09:12:03;45.23;;;25.43;;
15958;SDS011;8078;47.822;9.402;2023-02-01T09:14:29;50.37;;;23.77;;
15958;SDS011;8078;47.822;9.402;2023-02-01T09:16:55;57.17;;;26.23;;
15958;SDS011;8078;47.822;9.402;2023-02-01T09:19:20;88.73;;;27.53;;
15958;SDS011;8078;47.822;9.402;2023-02-01T09:21:46;79.77;;;27.87;;
15958;SDS011;8078;47.822;9.402;2023-02-01T09:24:12;257.57;;;46.83;;
15958;SDS011;8078;47.822;9.402;2023-02-01T09:26:38;310.63;;;50.17;;
15958;SDS011;8078;47.822;9.402;2023-02-01T09:29:03;181.17;;;41.70;;
15958;SDS011;8078;47.822;9.402;2023-02-01T09:31:34;143.67;;;36.97;;
15958;SDS011;8078;47.822;9.402;2023-02-01T09:34:00;420.87;;;60.53;;
15958;SDS011;8078;47.822;9.402;2023-02-01T09:36:26;291.60;;;51.27;;
15958;SDS011;8078;47.822;9.402;2023-02-01T09:38:52;350.30;;;49.23;;
15958;SDS011;8078;47.822;9.402;2023-02-01T09:47:09;327.50;;;49.07;;
15958;SDS011;8078;47.822;9.402;2023-02-01T09:50:03;360.00;;;64.47;;
15958;SDS011;8078;47.822;9.402;2023-02-01T09:52:34;106.73;;;43.47;;
15958;SDS011;8078;47.822;9.402;2023-02-01T09:55:16;109.93;;;39.30;;
15958;SDS011;8078;47.822;9.402;2023-02-01T10:00:37;79.57;;;33.80;;
15958;SDS011;8078;47.822;9.402;2023-02-01T10:03:04;106.57;;;39.40;;
15958;SDS011;8078;47.822;9.402;2023-02-01T10:06:01;81.43;;;39.70;;
15958;SDS011;8078;47.822;9.402;2023-02-01T10:11:48;78.17;;;40.47;;
15958;SDS011;8078;47.822;9.402;2023-02-01T10:17:02;68.70;;;33.73;;
15958;SDS011;8078;47.822;9.402;2023-02-01T10:22:42;65.00;;;33.27;;
15958;SDS011;8078;47.822;9.402;2023-02-01T10:25:23;52.77;;;28.83;;
15958;SDS011;8078;47.822;9.402;2023-02-01T10:27:53;50.80;;;29.00;;
15958;SDS011;8078;47.822;9.402;2023-02-01T10:30:23;53.10;;;28.53;;
15958;SDS011;8078;47.822;9.402;2023-02-01T10:32:55;44.07;;;26.57;;
15958;SDS011;8078;47.822;9.402;2023-02-01T10:35:24;48.50;;;26.57;;
15958;SDS011;8078;47.822;9.402;2023-02-01T10:37:59;43.70;;;25.77;;
15958;SDS011;8078;47.822;9.402;2023-02-01T10:40:28;37.27;;;21.53;;
15958;SDS011;8078;47.822;9.402;2023-02-01T10:42:56;39.60;;;19.70;;
15958;SDS011;8078;47.822;9.402;2023-02-01T10:45:26;32.13;;;18.57;;
15958;SDS011;8078;47.822;9.402;2023-02-01T10:47:54;29.50;;;17.53;;
15958;SDS011;8078;47.822;9.402;2023-02-01T10:50:33;28.67;;;16.27;;
15958;SDS011;8078;47.822;9.402;2023-02-01T10:53:29;25.23;;;16.27;;
15958;SDS011;8078;47.822;9.402;2023-02-01T10:56:07;23.63;;;16.17;;
15958;SDS011;8078;47.822;9.402;2023-02-01T10:58:34;23.50;;;15.37;;
15958;SDS011;8078;47.822;9.402;2023-02-01T11:05:58;21.70;;;15.93;;
15958;SDS011;8078;47.822;9.402;2023-02-01T11:08:25;21.77;;;13.90;;
15958;SDS011;8078;47.822;9.402;2023-02-01T11:11:09;25.37;;;15.80;;
15958;SDS011;8078;47.822;9.402;2023-02-01T11:13:38;21.17;;;15.83;;
15958;SDS011;8078;47.822;9.402;2023-02-01T11:16:05;20.93;;;14.90;;
15958;SDS011;8078;47.822;9.402;2023-02-01T11:18:35;19.33;;;13.13;;
15958;SDS011;8078;47.822;9.402;2023-02-01T11:21:02;18.73;;;12.47;;
15958;SDS011;8078;47.822;9.402;2023-02-01T11:23:30;18.33;;;12.47;;
15958;SDS011;8078;47.822;9.402;2023-02-01T11:26:40;17.37;;;11.03;;
15958;SDS011;8078;47.822;9.402;2023-02-01T11:28:58;16.60;;;11.23;;
15958;SDS011;8078;47.822;9.402;2023-02-01T11:31:28;16.30;;;11.47;;
15958;SDS011;8078;47.822;9.402;2023-02-01T11:33:57;14.43;;;10.50;;
15958;SDS011;8078;47.822;9.402;2023-02-01T11:36:26;14.33;;;9.53;;
15958;SDS011;8078;47.822;9.402;2023-02-01T11:39:07;13.57;;;10.67;;
15958;SDS011;8078;47.822;9.402;2023-02-01T11:41:40;12.43;;;9.70;;
15958;SDS011;8078;47.822;9.402;2023-02-01T11:44:31;14.40;;;8.90;;
15958;SDS011;8078;47.822;9.402;2023-02-01T11:47:16;10.57;;;7.80;;
15958;SDS011;8078;47.822;9.402;2023-02-01T11:49:43;14.10;;;10.10;;
15958;SDS011;8078;47.822;9.402;2023-02-01T11:52:12;12.50;;;8.10;;
15958;SDS011;8078;47.822;9.402;2023-02-01T11:57:28;10.13;;;7.87;;
15958;SDS011;8078;47.822;9.402;2023-02-01T12:16:39;9.57;;;6.60;;
15958;SDS011;8078;47.822;9.402;2023-02-01T12:25:06;10.83;;;7.10;;
15958;SDS011;8078;47.822;9.402;2023-02-01T12:33:03;11.27;;;6.60;;
15958;SDS011;8078;47.822;9.402;2023-02-01T12:35:58;9.50;;;7.00;;
15958;SDS011;8078;47.822;9.402;2023-02-01T12:38:57;12.23;;;8.30;;
15958;SDS011;8078;47.822;9.402;2023-02-01T12:46:59;9.17;;;7.33;;
15958;SDS011;8078;47.822;9.402;2023-02-01T12:49:33;12.07;;;8.23;;
15958;SDS011;8078;47.822;9.402;2023-02-01T12:52:21;9.07;;;7.07;;
15958;SDS011;8078;47.822;9.402;2023-02-01T12:54:55;9.47;;;6.90;;
15958;SDS011;8078;47.822;9.402;2023-02-01T12:57:37;12.13;;;8.43;;
15958;SDS011;8078;47.822;9.402;2023-02-01T13:00:14;11.27;;;8.37;;
15958;SDS011;8078;47.822;9.402;2023-02-01T13:08:41;12.57;;;7.70;;
15958;SDS011;8078;47.822;9.402;2023-02-01T13:11:29;10.37;;;6.40;;
15958;SDS011;8078;47.822;9.402;2023-02-01T13:16:52;7.90;;;5.93;;
15958;SDS011;8078;47.822;9.402;2023-02-01T13:19:27;10.03;;;6.23;;
15958;SDS011;8078;47.822;9.402;2023-02-01T13:22:17;11.43;;;6.80;;
15958;SDS011;8078;47.822;9.402;2023-02-01T13:24:59;7.77;;;6.13;;
15958;SDS011;8078;47.822;9.402;2023-02-01T13:27:28;12.50;;;6.37;;
15958;SDS011;8078;47.822;9.402;2023-02-01T13:32:53;15.23;;;6.20;;
15958;SDS011;8078;47.822;9.402;2023-02-01T13:38:15;12.87;;;5.30;;
15958;SDS011;8078;47.822;9.402;2023-02-01T13:41:15;7.80;;;5.07;;
15958;SDS011;8078;47.822;9.402;2023-02-01T13:44:05;8.17;;;5.20;;
15958;SDS011;8078;47.822;9.402;2023-02-01T13:46:41;8.47;;;5.13;;
15958;SDS011;8078;47.822;9.402;2023-02-01T13:49:16;7.00;;;4.47;;
15958;SDS011;8078;47.822;9.402;2023-02-01T13:51:51;12.73;;;5.80;;
15958;SDS011;8078;47.822;9.402;2023-02-01T13:54:32;11.83;;;4.37;;
15958;SDS011;8078;47.822;9.402;2023-02-01T13:57:03;12.23;;;5.17;;
15958;SDS011;8078;47.822;9.402;2023-02-01T14:23:47;9.67;;;4.30;;
15958;SDS011;8078;47.822;9.402;2023-02-01T14:31:51;9.33;;;5.33;;
15958;SDS011;8078;47.822;9.402;2023-02-01T14:34:20;13.97;;;5.40;;
15958;SDS011;8078;47.822;9.402;2023-02-01T14:44:55;14.20;;;5.53;;
15958;SDS011;8078;47.822;9.402;2023-02-01T14:47:41;13.10;;;5.17;;
15958;SDS011;8078;47.822;9.402;2023-02-01T14:50:10;9.13;;;5.27;;
15958;SDS011;8078;47.822;9.402;2023-02-01T14:52:38;11.73;;;4.73;;
15958;SDS011;8078;47.822;9.402;2023-02-01T14:55:11;10.23;;;5.00;;
15958;SDS011;8078;47.822;9.402;2023-02-01T14:57:52;9.30;;;4.50;;
15958;SDS011;8078;47.822;9.402;2023-02-01T15:02:50;12.33;;;5.30;;
15958;SDS011;8078;47.822;9.402;2023-02-01T15:05:24;18.73;;;5.20;;
15958;SDS011;8078;47.822;9.402;2023-02-01T15:07:55;11.67;;;4.77;;
15958;SDS011;8078;47.822;9.402;2023-02-01T15:10:23;16.30;;;4.73;;
15958;SDS011;8078;47.822;9.402;2023-02-01T15:12:49;11.30;;;4.80;;
15958;SDS011;8078;47.822;9.402;2023-02-01T15:15:19;12.13;;;5.50;;
15958;SDS011;8078;47.822;9.402;2023-02-01T15:17:54;7.30;;;5.00;;
15958;SDS011;8078;47.822;9.402;2023-02-01T15:20:32;14.53;;;5.53;;
15958;SDS011;8078;47.822;9.402;2023-02-01T15:23:02;10.07;;;5.07;;
15958;SDS011;8078;47.822;9.402;2023-02-01T15:25:31;10.33;;;5.07;;
15958;SDS011;8078;47.822;9.402;2023-02-01T15:28:03;7.77;;;4.23;;
15958;SDS011;8078;47.822;9.402;2023-02-01T15:30:32;11.37;;;5.13;;
15958;SDS011;8078;47.822;9.402;2023-02-01T15:35:40;8.90;;;4.57;;
15958;SDS011;8078;47.822;9.402;2023-02-01T15:41:00;11.10;;;5.30;;
15958;SDS011;8078;47.822;9.402;2023-02-01T15:43:34;10.67;;;5.27;;
15958;SDS011;8078;47.822;9.402;2023-02-01T15:46:02;9.20;;;5.23;;
15958;SDS011;8078;47.822;9.402;2023-02-01T15:48:45;14.63;;;4.73;;
15958;SDS011;8078;47.822;9.402;2023-02-01T15:51:18;11.73;;;4.40;;
15958;SDS011;8078;47.822;9.402;2023-02-01T15:53:50;8.70;;;4.57;;
15958;SDS011;8078;47.822;9.402;2023-02-01T15:56:22;8.43;;;4.37;;
15958;SDS011;8078;47.822;9.402;2023-02-01T15:58:54;13.50;;;4.90;;
15958;SDS011;8078;47.822;9.402;2023-02-01T16:01:22;14.10;;;5.77;;
15958;SDS011;8078;47.822;9.402;2023-02-01T16:03:48;13.13;;;6.30;;
15958;SDS011;8078;47.822;9.402;2023-02-01T16:06:27;9.53;;;4.43;;
15958;SDS011;8078;47.822;9.402;2023-02-01T16:08:59;9.17;;;4.77;;
15958;SDS011;8078;47.822;9.402;2023-02-01T16:11:51;10.73;;;4.80;;
15958;SDS011;8078;47.822;9.402;2023-02-01T16:14:20;14.30;;;5.13;;
15958;SDS011;8078;47.822;9.402;2023-02-01T16:16:46;9.83;;;5.13;;
15958;SDS011;8078;47.822;9.402;2023-02-01T16:19:11;10.03;;;5.00;;
15958;SDS011;8078;47.822;9.402;2023-02-01T16:21:37;12.77;;;4.90;;
15958;SDS011;8078;47.822;9.402;2023-02-01T16:24:03;8.87;;;5.00;;
15958;SDS011;8078;47.822;9.402;2023-02-01T16:26:32;11.10;;;4.80;;
15958;SDS011;8078;47.822;9.402;2023-02-01T16:28:59;11.83;;;5.77;;
15958;SDS011;8078;47.822;9.402;2023-02-01T16:31:28;8.23;;;4.67;;
15958;SDS011;8078;47.822;9.402;2023-02-01T16:33:55;7.33;;;4.87;;
15958;SDS011;8078;47.822;9.402;2023-02-01T16:36:21;14.37;;;5.37;;
15958;SDS011;8078;47.822;9.402;2023-02-01T16:38:47;16.23;;;5.37;;
15958;SDS011;8078;47.822;9.402;2023-02-01T16:41:14;9.70;;;4.67;;
15958;SDS011;8078;47.822;9.402;2023-02-01T16:43:41;17.40;;;5.00;;
15958;SDS011;8078;47.822;9.402;2023-02-01T16:46:17;15.33;;;5.40;;
15958;SDS011;8078;47.822;9.402;2023-02-01T16:48:50;7.00;;;3.90;;
15958;SDS011;8078;47.822;9.402;2023-02-01T16:51:21;16.07;;;5.30;;
15958;SDS011;8078;47.822;9.402;2023-02-01T16:53:48;10.97;;;4.90;;
15958;SDS011;8078;47.822;9.402;2023-02-01T16:56:18;14.70;;;5.17;;
15958;SDS011;8078;47.822;9.402;2023-02-01T16:58:45;9.00;;;4.70;;
15958;SDS011;8078;47.822;9.402;2023-02-01T17:01:12;13.90;;;5.10;;
15958;SDS011;8078;47.822;9.402;2023-02-01T17:03:38;13.07;;;4.83;;
15958;SDS011;8078;47.822;9.402;2023-02-01T17:06:04;12.60;;;5.60;;
15958;SDS011;8078;47.822;9.402;2023-02-01T17:08:32;16.40;;;5.53;;
15958;SDS011;8078;47.822;9.402;2023-02-01T17:11:00;8.50;;;4.70;;
15958;SDS011;8078;47.822;9.402;2023-02-01T17:13:27;10.63;;;5.80;;
15958;SDS011;8078;47.822;9.402;2023-02-01T17:15:58;12.30;;;5.00;;
15958;SDS011;8078;47.822;9.402;2023-02-01T17:18:27;12.40;;;5.77;;
15958;SDS011;8078;47.822;9.402;2023-02-01T17:20:57;12.80;;;5.50;;
15958;SDS011;8078;47.822;9.402;2023-02-01T17:23:24;11.30;;;4.87;;
15958;SDS011;8078;47.822;9.402;2023-02-01T17:25:50;13.10;;;5.70;;
15958;SDS011;8078;47.822;9.402;2023-02-01T17:28:16;9.53;;;5.40;;
15958;SDS011;8078;47.822;9.402;2023-02-01T17:30:41;7.77;;;5.13;;
15958;SDS011;8078;47.822;9.402;2023-02-01T17:33:16;13.80;;;5.50;;
15958;SDS011;8078;47.822;9.402;2023-02-01T17:35:49;7.40;;;4.90;;
15958;SDS011;8078;47.822;9.402;2023-02-01T17:38:15;11.80;;;5.20;;
15958;SDS011;8078;47.822;9.402;2023-02-01T17:40:41;12.03;;;5.47;;